createdAt,value
2023-03-25T00:01:34.520Z,0.30
2023-03-25T00:04:04.241Z,0.30
2023-03-25T00:06:34.388Z,0.40
2023-03-25T00:09:03.985Z,0.30
2023-03-25T00:11:31.668Z,0.22
2023-03-25T00:13:58.696Z,0.20
2023-03-25T00:16:25.651Z,0.30
2023-03-25T00:18:52.656Z,0.63
2023-03-25T00:21:19.799Z,0.30
2023-03-25T00:23:46.887Z,0.40
2023-03-25T00:26:14.003Z,0.20
2023-03-25T00:28:40.940Z,0.30
2023-03-25T00:31:13.268Z,0.30
2023-03-25T00:33:41.863Z,0.30
2023-03-25T00:36:13.714Z,0.30
2023-03-25T00:38:43.175Z,0.70
2023-03-25T00:41:25.438Z,0.30
2023-03-25T00:43:55.493Z,0.30
2023-03-25T00:46:26.773Z,0.30
2023-03-25T00:48:54.791Z,0.30
2023-03-25T00:51:23.678Z,0.30
2023-03-25T00:54:01.442Z,0.30
2023-03-25T00:56:30.050Z,0.35
2023-03-25T00:58:57.570Z,0.30
2023-03-25T01:01:28.540Z,0.30
2023-03-25T01:04:00.356Z,0.30
2023-03-25T01:06:33.637Z,0.38
2023-03-25T01:09:05.772Z,0.20
2023-03-25T01:11:34.989Z,0.30
2023-03-25T01:14:03.940Z,0.30
2023-03-25T01:16:32.345Z,0.20
2023-03-25T01:18:59.437Z,0.30
2023-03-25T01:21:26.826Z,0.25
2023-03-25T01:23:54.074Z,0.30
2023-03-25T01:26:21.277Z,0.30
2023-03-25T01:28:48.291Z,0.30
2023-03-25T01:31:16.405Z,0.30
2023-03-25T01:33:43.724Z,0.20
2023-03-25T01:36:13.024Z,0.20
2023-03-25T01:38:41.826Z,0.20
2023-03-25T01:41:10.648Z,0.30
2023-03-25T01:43:37.838Z,0.47
2023-03-25T01:46:05.004Z,0.30
2023-03-25T01:48:40.601Z,0.35
2023-03-25T01:51:24.547Z,0.30
2023-03-25T01:53:55.720Z,0.52
2023-03-25T01:56:40.090Z,0.30
2023-03-25T01:59:11.032Z,0.28
2023-03-25T02:01:38.052Z,0.30
2023-03-25T02:04:11.549Z,0.30
2023-03-25T02:06:53.837Z,0.30
2023-03-25T02:09:26.497Z,0.30
2023-03-25T02:11:56.287Z,0.30
2023-03-25T02:14:30.949Z,0.38
2023-03-25T02:17:36.943Z,0.30
2023-03-25T02:20:37.427Z,0.30
2023-03-25T02:23:45.925Z,0.30
2023-03-25T02:26:57.361Z,0.30
2023-03-25T02:30:03.066Z,0.20
2023-03-25T02:33:13.849Z,0.20
2023-03-25T02:36:11.739Z,0.30
2023-03-25T02:38:57.775Z,0.20
2023-03-25T02:41:46.316Z,0.22
2023-03-25T02:44:25.327Z,0.35
2023-03-25T02:46:59.519Z,0.25
2023-03-25T02:49:36.676Z,0.32
2023-03-25T02:52:16.512Z,0.40
2023-03-25T02:54:47.549Z,0.30
2023-03-25T02:57:20.187Z,0.30
2023-03-25T02:59:54.228Z,0.28
2023-03-25T03:02:25.692Z,0.38
2023-03-25T03:04:56.843Z,0.28
2023-03-25T03:07:36.501Z,0.20
2023-03-25T03:10:38.147Z,1.00
2023-03-25T03:13:26.070Z,0.28
2023-03-25T03:16:40.773Z,0.20
2023-03-25T03:19:38.312Z,0.30
2023-03-25T03:22:42.652Z,0.32
2023-03-25T03:25:43.668Z,0.35
2023-03-25T03:28:24.656Z,0.30
2023-03-25T03:31:49.785Z,0.30
2023-03-25T03:34:20.119Z,0.30
2023-03-25T03:36:52.147Z,0.30
2023-03-25T03:39:39.192Z,0.38
2023-03-25T03:42:40.231Z,0.47
2023-03-25T03:45:49.726Z,0.20
2023-03-25T03:48:38.649Z,0.17
2023-03-25T03:51:18.672Z,0.20
2023-03-25T03:53:58.314Z,0.30
2023-03-25T03:56:48.412Z,0.22
2023-03-25T03:59:38.288Z,0.28
2023-03-25T04:02:23.426Z,0.30
2023-03-25T04:04:53.950Z,0.30
2023-03-25T04:08:00.933Z,0.30
2023-03-25T04:10:52.559Z,0.68
2023-03-25T04:13:23.891Z,0.30
2023-03-25T04:15:51.485Z,0.30
2023-03-25T04:18:23.297Z,0.20
2023-03-25T04:20:50.218Z,0.30
2023-03-25T04:23:17.420Z,0.25
2023-03-25T04:25:47.883Z,0.25
2023-03-25T04:28:17.702Z,0.20
2023-03-25T04:30:45.452Z,0.30
2023-03-25T04:33:13.346Z,0.40
2023-03-25T04:35:40.574Z,0.30
2023-03-25T04:38:08.322Z,0.30
2023-03-25T04:40:35.609Z,0.30
2023-03-25T04:43:02.562Z,0.45
2023-03-25T04:45:30.704Z,0.22
2023-03-25T04:47:58.017Z,0.20
2023-03-25T04:50:29.141Z,0.20
2023-03-25T04:52:58.168Z,0.22
2023-03-25T04:55:26.034Z,0.22
2023-03-25T04:57:54.795Z,0.30
2023-03-25T05:00:25.051Z,0.20
2023-03-25T05:02:55.869Z,0.20
2023-03-25T05:05:25.995Z,0.30
2023-03-25T05:07:55.397Z,0.20
2023-03-25T05:10:26.490Z,0.30
2023-03-25T05:13:07.362Z,0.40
2023-03-25T05:15:39.547Z,0.40
2023-03-25T05:18:12.929Z,0.20
2023-03-25T05:20:42.993Z,0.47
2023-03-25T05:23:23.418Z,0.30
2023-03-25T05:25:51.766Z,0.20
2023-03-25T05:28:20.038Z,0.30
2023-03-25T05:30:48.131Z,0.40
2023-03-25T05:33:18.064Z,0.40
2023-03-25T05:35:46.190Z,0.30
2023-03-25T05:38:18.885Z,0.35
2023-03-25T05:40:49.552Z,0.30
2023-03-25T05:43:16.882Z,0.40
2023-03-25T05:45:48.011Z,0.52
2023-03-25T05:48:14.990Z,0.30
2023-03-25T05:50:42.994Z,0.20
2023-03-25T05:53:17.797Z,0.20
2023-03-25T05:55:44.725Z,0.30
2023-03-25T05:58:14.314Z,0.30
2023-03-25T06:00:41.263Z,0.20
2023-03-25T06:03:08.729Z,0.20
2023-03-25T06:05:38.523Z,0.20
2023-03-25T06:08:05.777Z,0.25
2023-03-25T06:10:33.416Z,0.52
2023-03-25T06:13:00.293Z,0.40
2023-03-25T06:15:36.080Z,0.28
2023-03-25T06:18:03.646Z,0.30
2023-03-25T06:20:30.643Z,0.30
2023-03-25T06:23:01.966Z,0.40
2023-03-25T06:25:31.111Z,0.30
2023-03-25T06:28:02.055Z,0.38
2023-03-25T06:30:28.936Z,0.35
2023-03-25T06:32:56.382Z,0.30
2023-03-25T06:35:23.652Z,0.30
2023-03-25T06:37:50.782Z,0.52
2023-03-25T06:40:17.772Z,0.40
2023-03-25T06:42:47.991Z,0.30
2023-03-25T06:45:16.291Z,0.30
2023-03-25T06:47:43.385Z,0.38
2023-03-25T06:50:14.448Z,0.30
2023-03-25T06:52:41.406Z,0.30
2023-03-25T06:55:09.752Z,0.50
2023-03-25T06:57:36.611Z,0.40
2023-03-25T07:00:08.031Z,0.30
2023-03-25T07:02:37.671Z,0.30
2023-03-25T07:05:06.059Z,0.30
2023-03-25T07:07:33.301Z,0.38
2023-03-25T07:10:00.410Z,0.40
2023-03-25T07:12:27.384Z,0.45
2023-03-25T07:14:57.464Z,0.60
2023-03-25T07:17:24.645Z,0.50
2023-03-25T07:19:52.051Z,0.30
2023-03-25T07:22:19.474Z,0.40
2023-03-25T07:24:46.570Z,0.20
2023-03-25T07:27:15.880Z,0.30
2023-03-25T07:29:42.840Z,0.30
2023-03-25T07:32:09.965Z,0.32
2023-03-25T07:34:38.242Z,1.08
2023-03-25T07:37:05.306Z,0.30
2023-03-25T07:39:34.946Z,0.43
2023-03-25T07:42:02.244Z,0.28
2023-03-25T07:44:29.322Z,0.30
2023-03-25T07:46:56.391Z,0.30
2023-03-25T07:49:23.662Z,0.47
2023-03-25T07:51:50.589Z,0.40
2023-03-25T07:54:17.467Z,0.40
2023-03-25T07:56:44.452Z,0.80
2023-03-25T07:59:11.415Z,1.45
2023-03-25T08:01:38.426Z,0.55
2023-03-25T08:04:06.883Z,0.30
2023-03-25T08:06:33.874Z,0.40
2023-03-25T08:09:00.931Z,0.40
2023-03-25T08:11:33.857Z,0.57
2023-03-25T08:14:04.431Z,0.40
2023-03-25T08:16:31.383Z,0.30
2023-03-25T08:18:58.304Z,0.50
2023-03-25T08:21:25.730Z,0.40
2023-03-25T08:23:58.479Z,0.40
2023-03-25T08:26:26.995Z,0.32
2023-03-25T08:28:57.720Z,0.60
2023-03-25T08:31:26.582Z,1.02
2023-03-25T08:33:53.561Z,0.30
2023-03-25T08:36:23.543Z,0.30
2023-03-25T08:38:51.480Z,0.75
2023-03-25T08:41:19.639Z,0.50
2023-03-25T08:43:47.185Z,0.50
2023-03-25T08:46:17.112Z,0.47
2023-03-25T08:48:44.532Z,0.50
2023-03-25T08:51:13.364Z,0.35
2023-03-25T08:53:40.276Z,0.75
2023-03-25T08:56:07.768Z,0.63
2023-03-25T08:58:34.950Z,1.92
2023-03-25T09:01:06.680Z,1.20
2023-03-25T09:03:34.343Z,2.00
2023-03-25T09:06:09.160Z,2.03
2023-03-25T09:08:40.008Z,1.55
2023-03-25T09:11:07.350Z,3.22
2023-03-25T09:13:34.262Z,1.50
2023-03-25T09:16:01.328Z,2.95
2023-03-25T09:18:28.269Z,1.35
2023-03-25T09:21:05.210Z,1.40
2023-03-25T09:23:32.271Z,1.23
2023-03-25T09:26:05.250Z,1.83
2023-03-25T09:28:34.878Z,1.88
2023-03-25T09:31:04.622Z,1.60
2023-03-25T09:33:32.117Z,1.98
2023-03-25T09:35:59.170Z,1.60
2023-03-25T09:38:26.261Z,1.45
2023-03-25T09:40:53.168Z,1.77
2023-03-25T09:43:47.261Z,1.90
2023-03-25T09:46:17.854Z,1.35
2023-03-25T09:48:50.649Z,2.38
2023-03-25T09:51:28.093Z,1.63
2023-03-25T09:54:04.483Z,1.05
2023-03-25T09:56:41.817Z,1.63
2023-03-25T09:59:23.340Z,1.30
2023-03-25T10:02:41.769Z,1.02
2023-03-25T10:05:18.605Z,1.17
2023-03-25T10:08:00.415Z,1.20
2023-03-25T10:11:06.152Z,1.20
2023-03-25T10:13:38.712Z,0.93
2023-03-25T10:16:37.309Z,1.52
2023-03-25T10:19:51.255Z,0.93
2023-03-25T10:22:31.077Z,1.33
2023-03-25T10:25:18.484Z,1.42
2023-03-25T10:27:51.049Z,0.93
2023-03-25T10:30:38.897Z,0.63
2023-03-25T10:33:54.154Z,1.70
2023-03-25T10:36:45.130Z,1.23
2023-03-25T10:39:21.842Z,1.42
2023-03-25T10:42:12.790Z,0.68
2023-03-25T10:44:40.198Z,1.23
2023-03-25T10:47:16.644Z,0.50
2023-03-25T10:49:46.686Z,2.25
2023-03-25T10:52:15.854Z,2.28
2023-03-25T10:54:51.749Z,1.08
2023-03-25T10:57:29.394Z,0.55
2023-03-25T11:00:19.059Z,1.63
2023-03-25T11:02:47.939Z,0.70
2023-03-25T11:05:24.835Z,1.10
2023-03-25T11:08:18.220Z,1.38
2023-03-25T11:10:55.925Z,1.88
2023-03-25T11:13:29.675Z,1.08
2023-03-25T11:16:03.804Z,0.88
2023-03-25T11:18:40.671Z,1.20
2023-03-25T11:21:14.629Z,0.98
2023-03-25T11:23:48.619Z,1.40
2023-03-25T11:26:27.504Z,0.90
2023-03-25T11:29:19.368Z,0.82
2023-03-25T11:32:05.945Z,2.45
2023-03-25T11:34:36.466Z,1.05
2023-03-25T11:37:22.578Z,1.30
2023-03-25T11:39:55.930Z,1.02
2023-03-25T11:42:42.958Z,1.92
2023-03-25T11:45:35.988Z,1.65
2023-03-25T11:48:13.436Z,0.90
2023-03-25T11:50:57.041Z,0.68
2023-03-25T11:53:27.555Z,1.23
2023-03-25T11:56:20.633Z,1.55
2023-03-25T11:58:49.750Z,0.98
2023-03-25T12:01:37.685Z,1.08
2023-03-25T12:04:24.941Z,1.08
2023-03-25T12:07:01.610Z,1.30
2023-03-25T12:09:36.087Z,0.60
2023-03-25T12:12:33.128Z,1.45
2023-03-25T12:15:35.824Z,1.05
2023-03-25T12:18:48.420Z,0.60
2023-03-25T12:21:27.392Z,0.60
2023-03-25T12:24:25.872Z,0.68
2023-03-25T12:27:20.004Z,0.70
2023-03-25T12:30:10.754Z,1.02
2023-03-25T12:33:11.670Z,0.85
2023-03-25T12:36:07.042Z,1.02
2023-03-25T12:39:15.028Z,0.80
2023-03-25T12:42:30.755Z,0.55
2023-03-25T12:45:26.446Z,0.45
2023-03-25T12:48:25.051Z,2.00
2023-03-25T12:51:39.788Z,1.65
2023-03-25T12:54:42.742Z,1.08
2023-03-25T12:57:38.086Z,2.00
2023-03-25T13:00:27.432Z,1.13
2023-03-25T13:03:26.156Z,0.90
2023-03-25T13:06:19.832Z,0.68
2023-03-25T13:09:11.026Z,0.47
2023-03-25T13:12:03.733Z,0.68
2023-03-25T13:14:44.851Z,1.70
2023-03-25T13:17:34.635Z,3.47
2023-03-25T13:20:11.025Z,1.67
2023-03-25T13:22:51.127Z,2.17
2023-03-25T13:25:43.039Z,1.40
2023-03-25T13:28:18.896Z,1.55
2023-03-25T13:30:49.346Z,1.45
2023-03-25T13:33:26.654Z,2.08
2023-03-25T13:36:09.536Z,1.08
2023-03-25T13:38:51.172Z,1.95
2023-03-25T13:41:25.824Z,1.75
2023-03-25T13:44:19.894Z,1.92
2023-03-25T13:47:09.645Z,1.42
2023-03-25T13:49:58.499Z,1.50
2023-03-25T13:52:37.359Z,2.03
2023-03-25T13:55:44.563Z,2.30
2023-03-25T13:58:37.653Z,2.08
2023-03-25T14:01:21.384Z,1.25
2023-03-25T14:03:57.094Z,3.65
2023-03-25T14:07:14.663Z,3.05
2023-03-25T14:10:26.578Z,2.65
2023-03-25T14:13:07.574Z,1.88
2023-03-25T14:15:44.515Z,1.17
2023-03-25T14:18:18.933Z,3.25
2023-03-25T14:20:47.030Z,4.22
2023-03-25T14:23:23.049Z,3.58
2023-03-25T14:26:05.900Z,1.30
2023-03-25T14:28:43.123Z,2.03
2023-03-25T14:31:23.088Z,1.10
2023-03-25T14:34:04.550Z,3.53
2023-03-25T14:36:40.784Z,1.93
2023-03-25T14:39:32.866Z,2.97
2023-03-25T14:42:08.656Z,2.17
2023-03-25T14:44:42.796Z,3.17
2023-03-25T14:47:23.262Z,3.90
2023-03-25T14:50:21.721Z,3.70
2023-03-25T14:52:56.785Z,2.03
2023-03-25T14:55:34.025Z,3.72
2023-03-25T14:58:29.628Z,1.80
2023-03-25T15:01:04.572Z,1.75
2023-03-25T15:03:44.263Z,4.40
2023-03-25T15:06:18.578Z,3.53
2023-03-25T15:08:59.901Z,2.05
2023-03-25T15:11:37.458Z,5.22
2023-03-25T15:14:10.216Z,3.10
2023-03-25T15:17:01.211Z,2.15
2023-03-25T15:19:28.469Z,4.22
2023-03-25T15:21:58.689Z,3.17
2023-03-25T15:24:34.221Z,4.07
2023-03-25T15:27:31.594Z,3.53
2023-03-25T15:30:40.717Z,5.78
2023-03-25T15:33:40.043Z,2.88
2023-03-25T15:36:40.189Z,2.05
2023-03-25T15:39:36.522Z,2.57
2023-03-25T15:42:06.544Z,1.65
2023-03-25T15:45:03.790Z,2.95
2023-03-25T15:47:56.151Z,1.38
2023-03-25T15:50:49.944Z,2.42
2023-03-25T15:53:41.969Z,1.10
2023-03-25T15:56:20.675Z,1.95
2023-03-25T15:59:07.008Z,2.08
2023-03-25T16:01:45.292Z,0.68
2023-03-25T16:04:32.594Z,0.80
2023-03-25T16:07:03.759Z,2.08
2023-03-25T16:09:44.679Z,2.42
2023-03-25T16:12:12.048Z,1.90
2023-03-25T16:14:44.211Z,1.48
2023-03-25T16:17:14.055Z,1.08
2023-03-25T16:19:57.142Z,1.05
2023-03-25T16:22:34.591Z,5.07
2023-03-25T16:25:08.244Z,4.72
2023-03-25T16:27:41.768Z,5.43
2023-03-25T16:30:37.121Z,4.60
2023-03-25T16:33:07.308Z,1.02
2023-03-25T16:35:42.211Z,2.22
2023-03-25T16:38:17.227Z,3.47
2023-03-25T16:40:47.110Z,4.20
2023-03-25T16:43:27.361Z,2.33
2023-03-25T16:46:00.822Z,1.75
2023-03-25T16:48:42.025Z,4.15
2023-03-25T16:51:16.652Z,1.17
2023-03-25T16:53:49.215Z,3.65
2023-03-25T16:56:16.330Z,2.47
2023-03-25T16:59:03.523Z,1.10
2023-03-25T17:01:39.447Z,2.10
2023-03-25T17:04:19.238Z,3.00
2023-03-25T17:06:54.554Z,3.70
2023-03-25T17:09:33.789Z,2.65
2023-03-25T17:12:08.027Z,2.13
2023-03-25T17:14:44.288Z,1.83
2023-03-25T17:17:23.422Z,0.93
2023-03-25T17:19:52.799Z,1.95
2023-03-25T17:22:36.090Z,1.40
2023-03-25T17:25:48.116Z,1.60
2023-03-25T17:28:35.283Z,0.70
2023-03-25T17:31:25.325Z,0.52
2023-03-25T17:33:58.304Z,1.77
2023-03-25T17:36:27.574Z,0.75
2023-03-25T17:38:56.080Z,1.10
2023-03-25T17:41:37.833Z,1.00
2023-03-25T17:44:06.353Z,0.93
2023-03-25T17:46:35.328Z,0.85
2023-03-25T17:49:13.832Z,0.85
2023-03-25T17:51:41.102Z,1.33
2023-03-25T17:54:08.119Z,1.50
2023-03-25T17:56:38.444Z,1.40
2023-03-25T17:59:13.965Z,0.80
2023-03-25T18:01:41.095Z,0.80
2023-03-25T18:04:14.416Z,1.42
2023-03-25T18:06:44.373Z,1.05
2023-03-25T18:09:27.024Z,0.80
2023-03-25T18:11:57.134Z,1.30
2023-03-25T18:14:27.734Z,1.35
2023-03-25T18:16:56.393Z,0.98
2023-03-25T18:19:31.239Z,0.52
2023-03-25T18:22:06.734Z,1.45
2023-03-25T18:24:38.318Z,1.20
2023-03-25T18:27:06.430Z,1.48
2023-03-25T18:29:33.429Z,3.50
2023-03-25T18:32:00.586Z,1.23
2023-03-25T18:34:28.798Z,1.90
2023-03-25T18:36:57.947Z,0.90
2023-03-25T18:39:29.338Z,1.30
2023-03-25T18:41:56.313Z,1.48
2023-03-25T18:44:23.832Z,0.77
2023-03-25T18:46:50.930Z,1.63
2023-03-25T18:49:20.292Z,0.93
2023-03-25T18:51:48.419Z,1.67
2023-03-25T18:54:16.782Z,0.95
2023-03-25T18:56:44.547Z,0.93
2023-03-25T18:59:16.878Z,1.13
2023-03-25T19:01:44.062Z,1.98
2023-03-25T19:04:11.099Z,1.00
2023-03-25T19:06:40.053Z,1.00
2023-03-25T19:09:09.450Z,1.40
2023-03-25T19:11:36.680Z,2.13
2023-03-25T19:14:03.659Z,1.35
2023-03-25T19:16:30.738Z,1.58
2023-03-25T19:18:57.832Z,1.48
2023-03-25T19:21:25.163Z,0.90
2023-03-25T19:23:52.458Z,0.77
2023-03-25T19:26:22.268Z,2.63
2023-03-25T19:28:49.149Z,0.90
2023-03-25T19:31:16.481Z,1.05
2023-03-25T19:33:43.911Z,0.75
2023-03-25T19:36:19.000Z,1.98
2023-03-25T19:38:46.438Z,0.93
2023-03-25T19:41:16.345Z,0.40
2023-03-25T19:43:43.815Z,1.63
2023-03-25T19:46:11.695Z,0.93
2023-03-25T19:48:38.789Z,1.67
2023-03-25T19:51:07.056Z,1.30
2023-03-25T19:53:34.638Z,0.90
2023-03-25T19:56:04.556Z,2.50
2023-03-25T19:58:31.769Z,0.43
2023-03-25T20:00:58.887Z,1.75
2023-03-25T20:03:26.800Z,0.55
2023-03-25T20:05:59.885Z,1.40
2023-03-25T20:08:29.413Z,0.98
2023-03-25T20:10:56.580Z,1.27
2023-03-25T20:13:23.538Z,0.70
2023-03-25T20:15:52.215Z,1.13
2023-03-25T20:18:19.388Z,1.05
2023-03-25T20:20:46.349Z,0.77
2023-03-25T20:23:13.370Z,1.20
2023-03-25T20:25:40.520Z,0.63
2023-03-25T20:28:07.656Z,0.93
2023-03-25T20:30:35.752Z,0.63
2023-03-25T20:33:03.852Z,0.98
2023-03-25T20:35:31.736Z,0.77
2023-03-25T20:38:01.694Z,0.90
2023-03-25T20:40:41.398Z,1.65
2023-03-25T20:43:14.807Z,0.57
2023-03-25T20:45:43.884Z,0.52
2023-03-25T20:48:11.224Z,0.75
2023-03-25T20:50:38.646Z,0.93
2023-03-25T20:53:05.775Z,0.43
2023-03-25T20:55:32.886Z,0.70
2023-03-25T20:57:59.913Z,0.50
2023-03-25T21:00:30.177Z,1.08
2023-03-25T21:02:57.831Z,0.77
2023-03-25T21:05:27.220Z,0.43
2023-03-25T21:07:54.418Z,0.52
2023-03-25T21:10:21.615Z,0.65
2023-03-25T21:12:49.271Z,0.88
2023-03-25T21:15:16.160Z,0.90
2023-03-25T21:17:44.139Z,0.47
2023-03-25T21:20:12.584Z,0.60
2023-03-25T21:22:45.472Z,1.52
2023-03-25T21:25:14.831Z,0.95
2023-03-25T21:27:45.198Z,0.63
2023-03-25T21:30:13.970Z,0.73
2023-03-25T21:32:41.592Z,0.82
2023-03-25T21:35:10.376Z,0.68
2023-03-25T21:37:39.383Z,1.27
2023-03-25T21:40:11.661Z,0.63
2023-03-25T21:42:42.469Z,0.30
2023-03-25T21:45:13.688Z,1.30
2023-03-25T21:47:41.929Z,0.60
2023-03-25T21:50:12.728Z,0.77
2023-03-25T21:52:48.067Z,0.40
2023-03-25T21:55:17.043Z,0.50
2023-03-25T21:57:45.031Z,0.73
2023-03-25T22:00:17.109Z,0.60
2023-03-25T22:02:46.667Z,0.63
2023-03-25T22:05:16.465Z,0.35
2023-03-25T22:07:43.674Z,0.30
2023-03-25T22:10:11.387Z,0.40
2023-03-25T22:12:38.448Z,0.50
2023-03-25T22:15:06.621Z,0.60
2023-03-25T22:17:33.894Z,0.40
2023-03-25T22:20:01.159Z,0.40
2023-03-25T22:22:30.025Z,0.45
2023-03-25T22:24:57.184Z,0.30
2023-03-25T22:27:26.016Z,0.50
2023-03-25T22:29:52.998Z,0.30
2023-03-25T22:32:20.284Z,0.30
2023-03-25T22:34:50.094Z,0.30
2023-03-25T22:37:20.731Z,0.73
2023-03-25T22:39:47.726Z,0.40
2023-03-25T22:42:14.643Z,0.32
2023-03-25T22:44:44.752Z,0.38
2023-03-25T22:47:12.693Z,0.55
2023-03-25T22:49:40.917Z,0.75
2023-03-25T22:52:07.856Z,0.90
2023-03-25T22:54:35.303Z,0.63
2023-03-25T22:57:05.732Z,0.35
2023-03-25T22:59:32.962Z,0.52
2023-03-25T23:02:02.871Z,0.50
2023-03-25T23:04:29.858Z,0.40
2023-03-25T23:07:07.315Z,0.30
2023-03-25T23:09:42.722Z,0.40
2023-03-25T23:12:17.034Z,0.60
2023-03-25T23:14:54.482Z,0.50
2023-03-25T23:17:24.277Z,0.30
2023-03-25T23:19:52.506Z,0.30
2023-03-25T23:22:21.429Z,0.40
2023-03-25T23:24:48.465Z,0.40
2023-03-25T23:27:15.710Z,0.30
2023-03-25T23:29:42.789Z,0.40
2023-03-25T23:32:10.265Z,0.38
2023-03-25T23:34:38.582Z,0.30
2023-03-25T23:37:07.737Z,0.45
2023-03-25T23:39:35.419Z,0.43
2023-03-25T23:42:02.389Z,0.30
2023-03-25T23:44:29.381Z,0.30
2023-03-25T23:46:56.453Z,0.47
2023-03-25T23:49:24.670Z,0.47
2023-03-25T23:51:51.679Z,0.25
2023-03-25T23:54:18.886Z,0.30
2023-03-25T23:56:48.994Z,0.45
2023-03-25T23:59:16.242Z,0.50
